sensor_id;sensor_type;location;lat;lon;timestamp;pressure;altitude;pressure_sealevel;temperature;humidity
15050;BME280;7622;42.724;23.250;2023-03-19T00:01:36;95211.19;;;3.14;100.00
15050;BME280;7622;42.724;23.250;2023-03-19T00:04:02;95195.28;;;3.08;100.00
15050;BME280;7622;42.724;23.250;2023-03-19T00:06:29;95205.41;;;3.11;100.00
15050;BME280;7622;42.724;23.250;2023-03-19T00:08:56;95198.63;;;3.10;100.00
15050;BME280;7622;42.724;23.250;2023-03-19T00:11:23;95217.13;;;3.15;100.00
15050;BME280;7622;42.724;23.250;2023-03-19T00:13:50;95214.19;;;2.91;100.00
15050;BME280;7622;42.724;23.250;2023-03-19T00:16:18;95204.66;;;2.77;100.00
15050;BME280;7622;42.724;23.250;2023-03-19T00:18:45;95206.91;;;2.68;100.00
15050;BME280;7622;42.724;23.250;2023-03-19T00:21:12;95207.41;;;2.74;100.00
15050;BME280;7622;42.724;23.250;2023-03-19T00:23:39;95201.28;;;2.77;100.00
15050;BME280;7622;42.724;23.250;2023-03-19T00:26:06;95196.25;;;2.75;100.00
15050;BME280;7622;42.724;23.250;2023-03-19T00:28:33;95201.03;;;2.66;100.00
15050;BME280;7622;42.724;23.250;2023-03-19T00:31:12;95189.88;;;2.51;100.00
15050;BME280;7622;42.724;23.250;2023-03-19T00:33:40;95188.06;;;2.53;100.00
15050;BME280;7622;42.724;23.250;2023-03-19T00:36:09;95179.63;;;2.51;100.00
15050;BME280;7622;42.724;23.250;2023-03-19T00:38:36;95190.13;;;2.47;100.00
15050;BME280;7622;42.724;23.250;2023-03-19T00:41:04;95185.09;;;2.61;100.00
15050;BME280;7622;42.724;23.250;2023-03-19T00:43:31;95172.66;;;2.53;100.00
15050;BME280;7622;42.724;23.250;2023-03-19T00:45:58;95181.41;;;2.49;100.00
15050;BME280;7622;42.724;23.250;2023-03-19T00:48:25;95164.91;;;2.55;100.00
15050;BME280;7622;42.724;23.250;2023-03-19T00:50:53;95167.53;;;2.53;100.00
15050;BME280;7622;42.724;23.250;2023-03-19T00:53:20;95169.69;;;2.45;100.00
15050;BME280;7622;42.724;23.250;2023-03-19T00:55:47;95170.53;;;2.61;100.00
15050;BME280;7622;42.724;23.250;2023-03-19T00:58:14;95163.91;;;2.57;100.00
15050;BME280;7622;42.724;23.250;2023-03-19T01:00:41;95165.72;;;2.55;100.00
15050;BME280;7622;42.724;23.250;2023-03-19T01:03:07;95162.16;;;2.58;100.00
15050;BME280;7622;42.724;23.250;2023-03-19T01:05:34;95161.25;;;2.43;100.00
15050;BME280;7622;42.724;23.250;2023-03-19T01:08:03;95160.75;;;2.36;100.00
15050;BME280;7622;42.724;23.250;2023-03-19T01:10:32;95117.94;;;2.07;100.00
15050;BME280;7622;42.724;23.250;2023-03-19T01:12:59;95158.94;;;2.07;100.00
15050;BME280;7622;42.724;23.250;2023-03-19T01:15:26;95153.97;;;2.20;100.00
15050;BME280;7622;42.724;23.250;2023-03-19T01:17:52;95154.41;;;2.28;100.00
15050;BME280;7622;42.724;23.250;2023-03-19T01:20:19;95161.25;;;2.27;100.00
15050;BME280;7622;42.724;23.250;2023-03-19T01:22:48;95157.09;;;2.09;100.00
15050;BME280;7622;42.724;23.250;2023-03-19T01:25:17;95151.78;;;1.96;100.00
15050;BME280;7622;42.724;23.250;2023-03-19T01:27:44;95154.09;;;1.85;100.00
15050;BME280;7622;42.724;23.250;2023-03-19T01:30:11;95170.16;;;1.72;100.00
15050;BME280;7622;42.724;23.250;2023-03-19T01:32:38;95164.59;;;1.64;100.00
15050;BME280;7622;42.724;23.250;2023-03-19T01:35:05;95161.66;;;1.54;100.00
15050;BME280;7622;42.724;23.250;2023-03-19T01:37:32;95171.63;;;1.43;100.00
15050;BME280;7622;42.724;23.250;2023-03-19T01:39:59;95167.84;;;1.50;100.00
15050;BME280;7622;42.724;23.250;2023-03-19T01:42:27;95163.19;;;1.41;100.00
15050;BME280;7622;42.724;23.250;2023-03-19T01:44:54;95151.53;;;1.35;100.00
15050;BME280;7622;42.724;23.250;2023-03-19T01:47:27;95164.19;;;1.38;100.00
15050;BME280;7622;42.724;23.250;2023-03-19T01:49:56;95141.81;;;1.25;100.00
15050;BME280;7622;42.724;23.250;2023-03-19T01:52:26;95147.63;;;1.28;100.00
15050;BME280;7622;42.724;23.250;2023-03-19T01:54:55;95171.16;;;1.52;100.00
15050;BME280;7622;42.724;23.250;2023-03-19T01:57:23;95164.75;;;1.43;100.00
15050;BME280;7622;42.724;23.250;2023-03-19T01:59:53;95144.16;;;1.29;100.00
15050;BME280;7622;42.724;23.250;2023-03-19T02:02:25;95166.81;;;1.37;100.00
15050;BME280;7622;42.724;23.250;2023-03-19T02:04:57;95167.13;;;1.31;100.00
15050;BME280;7622;42.724;23.250;2023-03-19T02:07:27;95168.22;;;1.25;100.00
15050;BME280;7622;42.724;23.250;2023-03-19T02:09:55;95157.00;;;1.28;100.00
15050;BME280;7622;42.724;23.250;2023-03-19T02:12:22;95164.25;;;1.37;100.00
15050;BME280;7622;42.724;23.250;2023-03-19T02:14:49;95168.16;;;1.44;100.00
15050;BME280;7622;42.724;23.250;2023-03-19T02:17:17;95160.31;;;1.64;100.00
15050;BME280;7622;42.724;23.250;2023-03-19T02:19:48;95159.41;;;1.48;100.00
15050;BME280;7622;42.724;23.250;2023-03-19T02:22:21;95148.41;;;1.63;100.00
15050;BME280;7622;42.724;23.250;2023-03-19T02:24:52;95147.72;;;1.59;100.00
15050;BME280;7622;42.724;23.250;2023-03-19T02:27:20;95162.50;;;1.87;100.00
15050;BME280;7622;42.724;23.250;2023-03-19T02:29:47;95169.34;;;1.54;100.00
15050;BME280;7622;42.724;23.250;2023-03-19T02:32:14;95166.06;;;1.52;100.00
15050;BME280;7622;42.724;23.250;2023-03-19T02:34:42;95162.41;;;1.56;100.00
15050;BME280;7622;42.724;23.250;2023-03-19T02:37:13;95166.94;;;1.51;100.00
15050;BME280;7622;42.724;23.250;2023-03-19T02:39:48;95158.19;;;1.55;100.00
15050;BME280;7622;42.724;23.250;2023-03-19T02:42:17;95159.41;;;1.48;100.00
15050;BME280;7622;42.724;23.250;2023-03-19T02:44:46;95176.72;;;1.43;100.00
15050;BME280;7622;42.724;23.250;2023-03-19T02:47:13;95178.22;;;1.47;100.00
15050;BME280;7622;42.724;23.250;2023-03-19T02:49:41;95184.34;;;1.44;100.00
15050;BME280;7622;42.724;23.250;2023-03-19T02:52:08;95172.97;;;1.50;100.00
15050;BME280;7622;42.724;23.250;2023-03-19T02:54:35;95178.41;;;1.44;100.00
15050;BME280;7622;42.724;23.250;2023-03-19T02:57:02;95182.97;;;1.54;100.00
15050;BME280;7622;42.724;23.250;2023-03-19T02:59:29;95177.09;;;1.35;100.00
15050;BME280;7622;42.724;23.250;2023-03-19T03:01:57;95185.97;;;1.45;100.00
15050;BME280;7622;42.724;23.250;2023-03-19T03:04:24;95191.41;;;1.56;100.00
15050;BME280;7622;42.724;23.250;2023-03-19T03:06:51;95192.84;;;1.45;100.00
15050;BME280;7622;42.724;23.250;2023-03-19T03:09:18;95188.09;;;1.37;100.00
15050;BME280;7622;42.724;23.250;2023-03-19T03:11:45;95180.94;;;1.44;100.00
15050;BME280;7622;42.724;23.250;2023-03-19T03:14:12;95184.69;;;1.19;100.00
15050;BME280;7622;42.724;23.250;2023-03-19T03:16:39;95197.34;;;1.23;100.00
15050;BME280;7622;42.724;23.250;2023-03-19T03:19:07;95190.50;;;1.23;100.00
15050;BME280;7622;42.724;23.250;2023-03-19T03:21:34;95185.31;;;1.07;100.00
15050;BME280;7622;42.724;23.250;2023-03-19T03:24:01;95191.34;;;1.24;100.00
15050;BME280;7622;42.724;23.250;2023-03-19T03:26:28;95188.97;;;1.19;100.00
15050;BME280;7622;42.724;23.250;2023-03-19T03:28:55;95189.69;;;1.23;100.00
15050;BME280;7622;42.724;23.250;2023-03-19T03:31:22;95172.28;;;1.12;100.00
15050;BME280;7622;42.724;23.250;2023-03-19T03:33:48;95181.53;;;1.14;100.00
15050;BME280;7622;42.724;23.250;2023-03-19T03:36:17;95179.59;;;1.19;100.00
15050;BME280;7622;42.724;23.250;2023-03-19T03:38:44;95194.25;;;1.16;100.00
15050;BME280;7622;42.724;23.250;2023-03-19T03:41:11;95189.69;;;1.23;100.00
15050;BME280;7622;42.724;23.250;2023-03-19T03:43:38;95095.38;;;0.46;100.00
15050;BME280;7622;42.724;23.250;2023-03-19T03:46:05;95200.72;;;1.06;100.00
15050;BME280;7622;42.724;23.250;2023-03-19T03:48:33;95195.66;;;1.04;100.00
15050;BME280;7622;42.724;23.250;2023-03-19T03:51:00;95201.47;;;1.25;100.00
15050;BME280;7622;42.724;23.250;2023-03-19T03:53:29;95206.16;;;1.17;100.00
15050;BME280;7622;42.724;23.250;2023-03-19T03:55:56;95203.44;;;1.03;100.00
15050;BME280;7622;42.724;23.250;2023-03-19T03:58:23;95192.22;;;1.05;100.00
15050;BME280;7622;42.724;23.250;2023-03-19T04:00:50;95192.94;;;0.90;100.00
15050;BME280;7622;42.724;23.250;2023-03-19T04:03:17;95205.28;;;0.99;100.00
15050;BME280;7622;42.724;23.250;2023-03-19T04:05:43;95195.06;;;0.99;100.00
15050;BME280;7622;42.724;23.250;2023-03-19T04:08:10;95203.97;;;1.09;100.00
15050;BME280;7622;42.724;23.250;2023-03-19T04:10:40;95131.50;;;0.74;100.00
15050;BME280;7622;42.724;23.250;2023-03-19T04:13:08;95193.56;;;1.12;100.00
15050;BME280;7622;42.724;23.250;2023-03-19T04:15:35;95198.16;;;1.06;100.00
15050;BME280;7622;42.724;23.250;2023-03-19T04:18:02;95195.00;;;1.18;100.00
15050;BME280;7622;42.724;23.250;2023-03-19T04:20:29;95187.03;;;0.90;100.00
15050;BME280;7622;42.724;23.250;2023-03-19T04:22:56;95187.66;;;0.76;100.00
15050;BME280;7622;42.724;23.250;2023-03-19T04:25:23;95194.75;;;0.88;100.00
15050;BME280;7622;42.724;23.250;2023-03-19T04:27:51;95198.16;;;1.06;100.00
15050;BME280;7622;42.724;23.250;2023-03-19T04:30:18;95200.34;;;0.96;100.00
15050;BME280;7622;42.724;23.250;2023-03-19T04:32:45;95195.59;;;0.89;100.00
15050;BME280;7622;42.724;23.250;2023-03-19T04:35:12;95188.00;;;1.04;100.00
15050;BME280;7622;42.724;23.250;2023-03-19T04:37:40;95200.88;;;1.03;100.00
15050;BME280;7622;42.724;23.250;2023-03-19T04:40:08;95196.47;;;1.24;100.00
15050;BME280;7622;42.724;23.250;2023-03-19T04:42:36;95191.06;;;0.94;100.00
15050;BME280;7622;42.724;23.250;2023-03-19T04:45:05;95202.47;;;1.40;100.00
15050;BME280;7622;42.724;23.250;2023-03-19T04:47:32;95208.81;;;2.00;100.00
15050;BME280;7622;42.724;23.250;2023-03-19T04:49:59;95211.06;;;2.55;100.00
15050;BME280;7622;42.724;23.250;2023-03-19T04:52:26;95206.03;;;3.14;100.00
15050;BME280;7622;42.724;23.250;2023-03-19T04:54:54;95200.88;;;3.30;100.00
15050;BME280;7622;42.724;23.250;2023-03-19T04:57:21;95205.56;;;3.68;100.00
15050;BME280;7622;42.724;23.250;2023-03-19T04:59:47;95206.50;;;3.81;100.00
15050;BME280;7622;42.724;23.250;2023-03-19T05:02:16;95206.88;;;3.89;100.00
15050;BME280;7622;42.724;23.250;2023-03-19T05:04:43;95203.59;;;3.87;100.00
15050;BME280;7622;42.724;23.250;2023-03-19T05:07:10;95211.59;;;3.67;100.00
15050;BME280;7622;42.724;23.250;2023-03-19T05:09:37;95201.19;;;3.84;100.00
15050;BME280;7622;42.724;23.250;2023-03-19T05:12:04;95214.97;;;3.97;100.00
15050;BME280;7622;42.724;23.250;2023-03-19T05:14:31;95211.50;;;4.26;100.00
15050;BME280;7622;42.724;23.250;2023-03-19T05:16:58;95209.66;;;4.43;100.00
15050;BME280;7622;42.724;23.250;2023-03-19T05:19:26;95219.38;;;4.52;100.00
15050;BME280;7622;42.724;23.250;2023-03-19T05:21:53;95217.31;;;4.85;100.00
15050;BME280;7622;42.724;23.250;2023-03-19T05:24:21;95210.72;;;5.08;94.81
15050;BME280;7622;42.724;23.250;2023-03-19T05:26:48;95186.97;;;5.17;91.15
15050;BME280;7622;42.724;23.250;2023-03-19T05:29:15;95209.84;;;5.61;85.44
15050;BME280;7622;42.724;23.250;2023-03-19T05:31:41;95202.13;;;6.13;81.91
15050;BME280;7622;42.724;23.250;2023-03-19T05:34:08;95199.94;;;6.20;76.54
15050;BME280;7622;42.724;23.250;2023-03-19T05:36:36;95197.44;;;6.31;74.45
15050;BME280;7622;42.724;23.250;2023-03-19T05:39:03;95196.19;;;6.37;76.03
15050;BME280;7622;42.724;23.250;2023-03-19T05:41:30;95202.72;;;6.79;71.88
15050;BME280;7622;42.724;23.250;2023-03-19T05:43:57;95191.72;;;6.77;69.67
15050;BME280;7622;42.724;23.250;2023-03-19T05:46:24;95203.50;;;6.92;69.82
15050;BME280;7622;42.724;23.250;2023-03-19T05:48:52;95206.53;;;6.49;70.57
15050;BME280;7622;42.724;23.250;2023-03-19T05:51:18;95211.94;;;7.89;82.45
15050;BME280;7622;42.724;23.250;2023-03-19T05:53:47;95217.84;;;7.56;63.65
15050;BME280;7622;42.724;23.250;2023-03-19T05:56:13;95215.16;;;7.10;66.23
15050;BME280;7622;42.724;23.250;2023-03-19T05:58:40;95204.19;;;6.83;65.98
15050;BME280;7622;42.724;23.250;2023-03-19T06:01:07;95222.75;;;6.88;66.32
15050;BME280;7622;42.724;23.250;2023-03-19T06:03:34;95206.97;;;7.16;66.25
15050;BME280;7622;42.724;23.250;2023-03-19T06:06:00;95214.59;;;7.65;63.80
15050;BME280;7622;42.724;23.250;2023-03-19T06:08:27;95211.34;;;7.50;64.14
15050;BME280;7622;42.724;23.250;2023-03-19T06:10:55;95216.13;;;7.44;63.91
15050;BME280;7622;42.724;23.250;2023-03-19T06:13:22;95208.28;;;7.80;63.43
15050;BME280;7622;42.724;23.250;2023-03-19T06:15:49;95217.34;;;7.86;62.88
15050;BME280;7622;42.724;23.250;2023-03-19T06:18:17;95191.88;;;7.58;66.86
15050;BME280;7622;42.724;23.250;2023-03-19T06:20:45;95222.59;;;8.19;62.15
15050;BME280;7622;42.724;23.250;2023-03-19T06:23:12;95232.97;;;7.49;63.47
15050;BME280;7622;42.724;23.250;2023-03-19T06:25:39;95224.16;;;7.28;64.09
15050;BME280;7622;42.724;23.250;2023-03-19T06:28:07;95228.78;;;7.95;64.05
15050;BME280;7622;42.724;23.250;2023-03-19T06:30:34;95181.50;;;8.50;59.53
15050;BME280;7622;42.724;23.250;2023-03-19T06:33:01;95235.03;;;8.03;60.55
15050;BME280;7622;42.724;23.250;2023-03-19T06:35:28;95234.56;;;8.09;62.20
15050;BME280;7622;42.724;23.250;2023-03-19T06:37:55;95227.03;;;8.63;59.87
15050;BME280;7622;42.724;23.250;2023-03-19T06:40:22;95242.47;;;7.73;62.27
15050;BME280;7622;42.724;23.250;2023-03-19T06:42:48;95242.56;;;7.95;62.18
15050;BME280;7622;42.724;23.250;2023-03-19T06:45:17;95239.88;;;7.73;63.82
15050;BME280;7622;42.724;23.250;2023-03-19T06:47:45;95225.50;;;8.04;63.00
15050;BME280;7622;42.724;23.250;2023-03-19T06:50:12;95252.91;;;8.41;61.93
15050;BME280;7622;42.724;23.250;2023-03-19T06:52:41;95251.53;;;8.13;62.72
15050;BME280;7622;42.724;23.250;2023-03-19T06:55:08;95251.59;;;8.36;62.22
15050;BME280;7622;42.724;23.250;2023-03-19T06:57:35;95251.13;;;9.08;61.90
15050;BME280;7622;42.724;23.250;2023-03-19T07:00:03;95221.41;;;8.01;63.02
15050;BME280;7622;42.724;23.250;2023-03-19T07:02:31;95253.38;;;8.00;64.04
15050;BME280;7622;42.724;23.250;2023-03-19T07:04:58;95257.53;;;8.14;62.93
15050;BME280;7622;42.724;23.250;2023-03-19T07:07:25;95252.78;;;8.87;63.25
15050;BME280;7622;42.724;23.250;2023-03-19T07:09:52;95255.56;;;9.40;64.95
15050;BME280;7622;42.724;23.250;2023-03-19T07:12:18;95252.50;;;10.82;61.27
15050;BME280;7622;42.724;23.250;2023-03-19T07:14:45;95246.13;;;10.44;55.67
15050;BME280;7622;42.724;23.250;2023-03-19T07:17:12;95256.91;;;9.66;58.07
15050;BME280;7622;42.724;23.250;2023-03-19T07:19:40;95253.84;;;9.18;59.53
15050;BME280;7622;42.724;23.250;2023-03-19T07:22:07;95253.75;;;9.83;57.73
15050;BME280;7622;42.724;23.250;2023-03-19T07:24:34;95255.84;;;9.89;56.71
15050;BME280;7622;42.724;23.250;2023-03-19T07:27:00;95256.78;;;9.68;57.07
15050;BME280;7622;42.724;23.250;2023-03-19T07:29:27;95247.97;;;10.53;55.28
15050;BME280;7622;42.724;23.250;2023-03-19T07:31:55;95252.84;;;10.98;53.63
15050;BME280;7622;42.724;23.250;2023-03-19T07:34:22;95242.78;;;10.53;54.95
15050;BME280;7622;42.724;23.250;2023-03-19T07:36:50;95248.50;;;10.47;54.21
15050;BME280;7622;42.724;23.250;2023-03-19T07:39:17;95241.56;;;10.88;53.26
15050;BME280;7622;42.724;23.250;2023-03-19T07:41:44;95248.59;;;10.66;53.94
15050;BME280;7622;42.724;23.250;2023-03-19T07:44:12;95244.16;;;11.87;51.95
15050;BME280;7622;42.724;23.250;2023-03-19T07:46:39;95250.59;;;12.02;51.84
15050;BME280;7622;42.724;23.250;2023-03-19T07:49:06;95232.22;;;12.13;50.81
15050;BME280;7622;42.724;23.250;2023-03-19T07:51:33;95239.59;;;12.28;50.03
15050;BME280;7622;42.724;23.250;2023-03-19T07:54:02;95248.09;;;11.91;49.98
15050;BME280;7622;42.724;23.250;2023-03-19T07:56:29;95232.91;;;11.96;50.37
15050;BME280;7622;42.724;23.250;2023-03-19T07:58:56;95242.19;;;12.37;48.98
15050;BME280;7622;42.724;23.250;2023-03-19T08:01:24;95249.47;;;12.80;48.82
15050;BME280;7622;42.724;23.250;2023-03-19T08:03:51;95240.06;;;12.70;48.15
15050;BME280;7622;42.724;23.250;2023-03-19T08:06:17;95234.69;;;12.71;48.01
15050;BME280;7622;42.724;23.250;2023-03-19T08:08:44;95238.06;;;12.44;48.04
15050;BME280;7622;42.724;23.250;2023-03-19T08:11:12;95240.06;;;12.60;48.67
15050;BME280;7622;42.724;23.250;2023-03-19T08:13:39;95245.75;;;12.92;48.13
15050;BME280;7622;42.724;23.250;2023-03-19T08:16:06;95243.72;;;13.68;47.43
15050;BME280;7622;42.724;23.250;2023-03-19T08:18:34;95242.91;;;14.03;46.72
15050;BME280;7622;42.724;23.250;2023-03-19T08:21:01;95251.81;;;14.54;45.72
15050;BME280;7622;42.724;23.250;2023-03-19T08:23:28;95248.56;;;13.99;46.05
15050;BME280;7622;42.724;23.250;2023-03-19T08:25:55;95246.97;;;13.70;45.57
15050;BME280;7622;42.724;23.250;2023-03-19T08:28:23;95247.75;;;13.80;45.74
15050;BME280;7622;42.724;23.250;2023-03-19T08:30:49;95245.06;;;14.08;44.92
15050;BME280;7622;42.724;23.250;2023-03-19T08:33:16;95241.81;;;14.32;44.48
15050;BME280;7622;42.724;23.250;2023-03-19T08:35:43;95240.28;;;14.90;43.41
15050;BME280;7622;42.724;23.250;2023-03-19T08:38:10;95239.16;;;14.67;42.88
15050;BME280;7622;42.724;23.250;2023-03-19T08:40:36;95215.75;;;14.57;43.07
15050;BME280;7622;42.724;23.250;2023-03-19T08:43:03;95215.63;;;14.93;42.57
15050;BME280;7622;42.724;23.250;2023-03-19T08:45:32;95234.09;;;14.66;43.43
15050;BME280;7622;42.724;23.250;2023-03-19T08:47:59;95221.38;;;14.71;43.24
15050;BME280;7622;42.724;23.250;2023-03-19T08:50:26;95227.22;;;14.65;42.57
15050;BME280;7622;42.724;23.250;2023-03-19T08:52:52;95224.72;;;15.23;41.86
15050;BME280;7622;42.724;23.250;2023-03-19T08:55:20;95219.53;;;15.89;40.35
15050;BME280;7622;42.724;23.250;2023-03-19T08:57:47;95223.78;;;16.47;39.54
15050;BME280;7622;42.724;23.250;2023-03-19T09:00:15;95204.44;;;16.56;38.89
15050;BME280;7622;42.724;23.250;2023-03-19T09:02:43;95204.44;;;16.48;39.05
15050;BME280;7622;42.724;23.250;2023-03-19T09:05:10;95210.97;;;15.71;39.15
15050;BME280;7622;42.724;23.250;2023-03-19T09:07:37;95208.81;;;15.58;39.50
15050;BME280;7622;42.724;23.250;2023-03-19T09:10:04;95199.56;;;16.12;38.81
15050;BME280;7622;42.724;23.250;2023-03-19T09:12:31;95198.72;;;15.88;38.54
15050;BME280;7622;42.724;23.250;2023-03-19T09:14:58;95196.94;;;15.88;39.38
15050;BME280;7622;42.724;23.250;2023-03-19T09:17:25;95194.38;;;15.46;40.31
15050;BME280;7622;42.724;23.250;2023-03-19T09:19:53;95197.44;;;16.00;39.69
15050;BME280;7622;42.724;23.250;2023-03-19T09:22:20;95191.38;;;16.07;39.69
15050;BME280;7622;42.724;23.250;2023-03-19T09:24:46;95191.34;;;16.40;39.51
15050;BME280;7622;42.724;23.250;2023-03-19T09:27:13;95185.13;;;16.33;39.83
15050;BME280;7622;42.724;23.250;2023-03-19T09:29:40;95183.16;;;16.51;39.04
15050;BME280;7622;42.724;23.250;2023-03-19T09:32:07;95178.91;;;16.26;39.60
15050;BME280;7622;42.724;23.250;2023-03-19T09:34:33;95178.22;;;16.56;39.24
15050;BME280;7622;42.724;23.250;2023-03-19T09:37:02;95171.34;;;16.63;38.59
15050;BME280;7622;42.724;23.250;2023-03-19T09:39:28;95182.81;;;17.17;37.18
15050;BME280;7622;42.724;23.250;2023-03-19T09:42:04;95176.03;;;16.84;37.54
15050;BME280;7622;42.724;23.250;2023-03-19T09:44:37;95174.19;;;15.89;38.10
15050;BME280;7622;42.724;23.250;2023-03-19T09:47:18;95178.31;;;15.49;37.72
15050;BME280;7622;42.724;23.250;2023-03-19T09:49:51;95172.31;;;15.49;37.59
15050;BME280;7622;42.724;23.250;2023-03-19T09:52:29;95174.97;;;16.13;37.04
15050;BME280;7622;42.724;23.250;2023-03-19T09:55:03;95174.34;;;15.87;36.41
15050;BME280;7622;42.724;23.250;2023-03-19T09:57:34;95172.13;;;14.92;37.51
15050;BME280;7622;42.724;23.250;2023-03-19T10:00:18;95166.09;;;15.00;37.12
15050;BME280;7622;42.724;23.250;2023-03-19T10:02:51;95162.63;;;15.49;36.32
15050;BME280;7622;42.724;23.250;2023-03-19T10:05:26;95164.69;;;15.88;36.76
15050;BME280;7622;42.724;23.250;2023-03-19T10:08:23;95156.34;;;17.27;35.40
15050;BME280;7622;42.724;23.250;2023-03-19T10:11:00;95158.00;;;17.82;34.92
15050;BME280;7622;42.724;23.250;2023-03-19T10:13:40;95149.13;;;17.83;34.73
15050;BME280;7622;42.724;23.250;2023-03-19T10:16:18;95146.75;;;18.48;34.64
15050;BME280;7622;42.724;23.250;2023-03-19T10:18:48;95136.44;;;18.76;35.43
15050;BME280;7622;42.724;23.250;2023-03-19T10:21:19;95144.13;;;19.21;38.35
15050;BME280;7622;42.724;23.250;2023-03-19T10:23:52;95130.03;;;19.65;34.49
15050;BME280;7622;42.724;23.250;2023-03-19T10:26:21;95129.53;;;18.75;37.03
15050;BME280;7622;42.724;23.250;2023-03-19T10:29:06;95116.28;;;18.83;34.63
15050;BME280;7622;42.724;23.250;2023-03-19T10:31:42;95112.53;;;19.21;35.09
15050;BME280;7622;42.724;23.250;2023-03-19T10:34:17;95106.50;;;19.85;34.13
15050;BME280;7622;42.724;23.250;2023-03-19T10:36:46;95111.38;;;20.09;34.18
15050;BME280;7622;42.724;23.250;2023-03-19T10:39:15;95064.63;;;19.33;33.53
15050;BME280;7622;42.724;23.250;2023-03-19T10:41:48;95104.41;;;19.23;33.97
15050;BME280;7622;42.724;23.250;2023-03-19T10:44:27;95085.75;;;19.75;33.71
15050;BME280;7622;42.724;23.250;2023-03-19T10:47:08;95092.00;;;19.95;33.44
15050;BME280;7622;42.724;23.250;2023-03-19T10:49:35;95084.34;;;19.79;33.31
15050;BME280;7622;42.724;23.250;2023-03-19T10:52:02;95077.28;;;19.44;33.63
15050;BME280;7622;42.724;23.250;2023-03-19T10:54:31;95074.44;;;18.88;34.10
15050;BME280;7622;42.724;23.250;2023-03-19T10:56:58;95072.13;;;19.14;33.87
15050;BME280;7622;42.724;23.250;2023-03-19T10:59:31;95036.28;;;19.35;33.80
15050;BME280;7622;42.724;23.250;2023-03-19T11:02:01;95059.28;;;19.62;33.85
15050;BME280;7622;42.724;23.250;2023-03-19T11:04:28;95058.97;;;19.78;33.19
15050;BME280;7622;42.724;23.250;2023-03-19T11:07:05;95050.53;;;19.61;33.50
15050;BME280;7622;42.724;23.250;2023-03-19T11:09:37;95051.13;;;19.85;33.31
15050;BME280;7622;42.724;23.250;2023-03-19T11:12:07;95047.31;;;19.87;33.35
15050;BME280;7622;42.724;23.250;2023-03-19T11:14:41;95022.59;;;19.46;33.68
15050;BME280;7622;42.724;23.250;2023-03-19T11:17:19;95038.41;;;19.46;33.84
15050;BME280;7622;42.724;23.250;2023-03-19T11:19:49;95037.78;;;19.65;33.55
15050;BME280;7622;42.724;23.250;2023-03-19T11:22:20;95035.50;;;19.41;33.95
15050;BME280;7622;42.724;23.250;2023-03-19T11:24:51;95029.75;;;19.73;33.66
15050;BME280;7622;42.724;23.250;2023-03-19T11:27:25;95018.88;;;20.11;33.24
15050;BME280;7622;42.724;23.250;2023-03-19T11:29:52;94988.16;;;19.96;33.52
15050;BME280;7622;42.724;23.250;2023-03-19T11:32:30;95013.47;;;20.19;33.73
15050;BME280;7622;42.724;23.250;2023-03-19T11:35:02;95009.63;;;19.93;33.76
15050;BME280;7622;42.724;23.250;2023-03-19T11:37:47;94992.66;;;20.02;33.52
15050;BME280;7622;42.724;23.250;2023-03-19T11:40:22;94994.59;;;20.22;33.29
15050;BME280;7622;42.724;23.250;2023-03-19T11:43:05;94999.44;;;20.46;33.32
15050;BME280;7622;42.724;23.250;2023-03-19T11:45:40;94999.88;;;19.66;34.40
15050;BME280;7622;42.724;23.250;2023-03-19T11:48:19;94988.56;;;19.72;34.19
15050;BME280;7622;42.724;23.250;2023-03-19T11:50:49;94987.22;;;20.11;34.26
15050;BME280;7622;42.724;23.250;2023-03-19T11:53:23;94979.06;;;19.28;34.85
15050;BME280;7622;42.724;23.250;2023-03-19T11:56:04;94973.34;;;19.25;35.34
15050;BME280;7622;42.724;23.250;2023-03-19T12:01:35;94944.94;;;18.13;37.82
15050;BME280;7622;42.724;23.250;2023-03-19T12:04:31;94973.03;;;18.92;36.70
15050;BME280;7622;42.724;23.250;2023-03-19T12:07:08;94959.63;;;18.87;36.12
15050;BME280;7622;42.724;23.250;2023-03-19T12:09:42;94964.44;;;18.83;37.17
15050;BME280;7622;42.724;23.250;2023-03-19T12:12:20;94957.47;;;18.76;36.36
15050;BME280;7622;42.724;23.250;2023-03-19T12:15:04;94955.31;;;18.65;38.30
15050;BME280;7622;42.724;23.250;2023-03-19T12:17:54;94956.50;;;18.47;37.39
15050;BME280;7622;42.724;23.250;2023-03-19T12:20:31;94951.91;;;18.05;37.29
15050;BME280;7622;42.724;23.250;2023-03-19T12:23:15;94952.56;;;18.07;37.38
15050;BME280;7622;42.724;23.250;2023-03-19T12:26:01;94944.06;;;17.91;37.17
15050;BME280;7622;42.724;23.250;2023-03-19T12:28:33;94946.69;;;17.53;37.34
15050;BME280;7622;42.724;23.250;2023-03-19T12:31:26;94944.78;;;17.47;37.84
15050;BME280;7622;42.724;23.250;2023-03-19T12:34:04;94936.16;;;17.61;38.10
15050;BME280;7622;42.724;23.250;2023-03-19T12:36:38;94940.03;;;17.80;37.79
15050;BME280;7622;42.724;23.250;2023-03-19T12:39:11;94932.34;;;17.79;37.61
15050;BME280;7622;42.724;23.250;2023-03-19T12:41:42;94906.97;;;17.71;37.47
15050;BME280;7622;42.724;23.250;2023-03-19T12:44:16;94932.84;;;17.59;37.57
15050;BME280;7622;42.724;23.250;2023-03-19T12:46:49;94927.19;;;17.33;38.40
15050;BME280;7622;42.724;23.250;2023-03-19T12:49:20;94914.22;;;17.69;37.98
15050;BME280;7622;42.724;23.250;2023-03-19T12:51:53;94921.56;;;17.74;38.02
15050;BME280;7622;42.724;23.250;2023-03-19T12:54:24;94903.50;;;17.70;38.06
15050;BME280;7622;42.724;23.250;2023-03-19T12:56:56;94914.84;;;18.15;37.78
15050;BME280;7622;42.724;23.250;2023-03-19T12:59:31;94913.03;;;18.16;37.60
15050;BME280;7622;42.724;23.250;2023-03-19T13:02:07;94908.84;;;17.92;38.37
15050;BME280;7622;42.724;23.250;2023-03-19T13:04:39;94867.03;;;17.61;38.13
15050;BME280;7622;42.724;23.250;2023-03-19T13:07:15;94906.69;;;17.81;37.80
15050;BME280;7622;42.724;23.250;2023-03-19T13:09:47;94905.97;;;18.01;37.88
15050;BME280;7622;42.724;23.250;2023-03-19T13:12:21;94901.28;;;17.82;37.77
15050;BME280;7622;42.724;23.250;2023-03-19T13:14:54;94891.16;;;17.56;38.26
15050;BME280;7622;42.724;23.250;2023-03-19T13:17:29;94896.34;;;17.64;38.44